sensor_id;sensor_type;location;lat;lon;timestamp;temperature;humidity
15409;DHT22;7803;48.130;13.788;2023-02-28T00:00:21;22.80;64.20
15409;DHT22;7803;48.130;13.788;2023-02-28T00:03:23;22.80;64.60
15409;DHT22;7803;48.130;13.788;2023-02-28T00:06:27;22.70;64.10
15409;DHT22;7803;48.130;13.788;2023-02-28T00:09:29;22.70;64.10
15409;DHT22;7803;48.130;13.788;2023-02-28T00:12:31;22.70;64.20
15409;DHT22;7803;48.130;13.788;2023-02-28T00:15:33;22.70;64.20
15409;DHT22;7803;48.130;13.788;2023-02-28T00:18:36;22.60;64.10
15409;DHT22;7803;48.130;13.788;2023-02-28T00:21:39;22.70;64.20
15409;DHT22;7803;48.130;13.788;2023-02-28T00:24:43;22.60;64.00
15409;DHT22;7803;48.130;13.788;2023-02-28T00:27:46;22.60;64.00
15409;DHT22;7803;48.130;13.788;2023-02-28T00:30:49;22.60;63.90
15409;DHT22;7803;48.130;13.788;2023-02-28T00:33:51;22.60;63.90
15409;DHT22;7803;48.130;13.788;2023-02-28T00:36:54;22.60;64.00
15409;DHT22;7803;48.130;13.788;2023-02-28T00:39:56;22.50;63.80
15409;DHT22;7803;48.130;13.788;2023-02-28T00:42:58;22.50;63.70
15409;DHT22;7803;48.130;13.788;2023-02-28T00:46:01;22.60;62.50
15409;DHT22;7803;48.130;13.788;2023-02-28T00:49:03;22.50;61.60
15409;DHT22;7803;48.130;13.788;2023-02-28T00:52:07;22.50;62.30
15409;DHT22;7803;48.130;13.788;2023-02-28T00:55:09;22.50;62.70
15409;DHT22;7803;48.130;13.788;2023-02-28T00:58:11;22.50;62.70
15409;DHT22;7803;48.130;13.788;2023-02-28T01:01:13;22.50;62.90
15409;DHT22;7803;48.130;13.788;2023-02-28T01:04:15;22.50;62.90
15409;DHT22;7803;48.130;13.788;2023-02-28T01:07:19;22.40;63.00
15409;DHT22;7803;48.130;13.788;2023-02-28T01:10:21;22.40;64.00
15409;DHT22;7803;48.130;13.788;2023-02-28T01:13:23;22.40;63.10
15409;DHT22;7803;48.130;13.788;2023-02-28T01:16:26;22.40;63.10
15409;DHT22;7803;48.130;13.788;2023-02-28T01:19:28;22.40;63.20
15409;DHT22;7803;48.130;13.788;2023-02-28T01:22:32;22.40;63.20
15409;DHT22;7803;48.130;13.788;2023-02-28T01:25:36;22.40;63.30
15409;DHT22;7803;48.130;13.788;2023-02-28T01:28:38;22.30;63.30
15409;DHT22;7803;48.130;13.788;2023-02-28T01:31:40;22.30;63.30
15409;DHT22;7803;48.130;13.788;2023-02-28T01:34:42;22.30;63.30
15409;DHT22;7803;48.130;13.788;2023-02-28T01:37:45;22.30;63.40
15409;DHT22;7803;48.130;13.788;2023-02-28T01:40:47;22.30;63.50
15409;DHT22;7803;48.130;13.788;2023-02-28T01:43:56;22.30;63.50
15409;DHT22;7803;48.130;13.788;2023-02-28T01:46:58;22.30;63.70
15409;DHT22;7803;48.130;13.788;2023-02-28T01:50:03;22.20;63.60
15409;DHT22;7803;48.130;13.788;2023-02-28T01:53:11;22.20;63.60
15409;DHT22;7803;48.130;13.788;2023-02-28T01:56:18;22.30;63.60
15409;DHT22;7803;48.130;13.788;2023-02-28T01:59:29;22.20;63.50
15409;DHT22;7803;48.130;13.788;2023-02-28T02:02:32;22.20;63.50
15409;DHT22;7803;48.130;13.788;2023-02-28T02:05:36;22.20;63.50
15409;DHT22;7803;48.130;13.788;2023-02-28T02:08:40;22.20;63.50
15409;DHT22;7803;48.130;13.788;2023-02-28T02:11:43;22.20;63.60
15409;DHT22;7803;48.130;13.788;2023-02-28T02:14:58;22.10;63.60
15409;DHT22;7803;48.130;13.788;2023-02-28T02:18:06;22.10;63.70
15409;DHT22;7803;48.130;13.788;2023-02-28T02:25:11;22.10;63.70
15409;DHT22;7803;48.130;13.788;2023-02-28T02:28:32;22.10;63.70
15409;DHT22;7803;48.130;13.788;2023-02-28T02:35:23;22.10;63.70
15409;DHT22;7803;48.130;13.788;2023-02-28T02:38:32;22.10;63.80
15409;DHT22;7803;48.130;13.788;2023-02-28T02:41:38;22.10;63.70
15409;DHT22;7803;48.130;13.788;2023-02-28T02:44:48;22.00;63.70
15409;DHT22;7803;48.130;13.788;2023-02-28T02:47:52;22.00;63.70
15409;DHT22;7803;48.130;13.788;2023-02-28T02:50:57;22.00;63.70
15409;DHT22;7803;48.130;13.788;2023-02-28T02:54:05;22.00;63.70
15409;DHT22;7803;48.130;13.788;2023-02-28T02:57:13;22.00;63.80
15409;DHT22;7803;48.130;13.788;2023-02-28T03:00:18;22.00;63.80
15409;DHT22;7803;48.130;13.788;2023-02-28T03:03:22;22.00;63.80
15409;DHT22;7803;48.130;13.788;2023-02-28T03:06:30;22.00;63.80
15409;DHT22;7803;48.130;13.788;2023-02-28T03:09:34;22.00;63.80
15409;DHT22;7803;48.130;13.788;2023-02-28T03:12:41;22.00;63.70
15409;DHT22;7803;48.130;13.788;2023-02-28T03:16:03;21.90;63.70
15409;DHT22;7803;48.130;13.788;2023-02-28T03:19:28;21.90;63.70
15409;DHT22;7803;48.130;13.788;2023-02-28T03:22:47;21.90;63.70
15409;DHT22;7803;48.130;13.788;2023-02-28T03:25:56;21.90;63.80
15409;DHT22;7803;48.130;13.788;2023-02-28T03:29:04;21.90;63.80
15409;DHT22;7803;48.130;13.788;2023-02-28T03:32:13;21.90;64.70
15409;DHT22;7803;48.130;13.788;2023-02-28T03:35:24;21.90;63.80
15409;DHT22;7803;48.130;13.788;2023-02-28T03:38:33;21.90;63.80
15409;DHT22;7803;48.130;13.788;2023-02-28T03:41:40;21.90;63.80
15409;DHT22;7803;48.130;13.788;2023-02-28T03:44:48;21.90;63.80
15409;DHT22;7803;48.130;13.788;2023-02-28T03:47:54;21.90;63.80
15409;DHT22;7803;48.130;13.788;2023-02-28T03:50:59;21.90;63.80
15409;DHT22;7803;48.130;13.788;2023-02-28T03:54:06;21.80;63.80
15409;DHT22;7803;48.130;13.788;2023-02-28T03:57:15;21.80;63.80
15409;DHT22;7803;48.130;13.788;2023-02-28T04:00:25;21.80;63.80
15409;DHT22;7803;48.130;13.788;2023-02-28T04:03:29;21.80;63.80
15409;DHT22;7803;48.130;13.788;2023-02-28T04:06:34;21.80;63.90
15409;DHT22;7803;48.130;13.788;2023-02-28T04:09:38;21.80;63.90
15409;DHT22;7803;48.130;13.788;2023-02-28T04:12:40;21.80;64.00
15409;DHT22;7803;48.130;13.788;2023-02-28T04:15:42;21.80;63.90
15409;DHT22;7803;48.130;13.788;2023-02-28T04:18:44;21.80;63.80
15409;DHT22;7803;48.130;13.788;2023-02-28T04:21:47;21.80;63.70
15409;DHT22;7803;48.130;13.788;2023-02-28T04:24:51;21.80;63.60
15409;DHT22;7803;48.130;13.788;2023-02-28T04:27:54;21.80;63.50
15409;DHT22;7803;48.130;13.788;2023-02-28T04:30:57;21.80;63.50
15409;DHT22;7803;48.130;13.788;2023-02-28T04:34:00;21.80;63.50
15409;DHT22;7803;48.130;13.788;2023-02-28T04:37:03;21.80;63.60
15409;DHT22;7803;48.130;13.788;2023-02-28T04:40:08;21.80;63.50
15409;DHT22;7803;48.130;13.788;2023-02-28T04:43:10;21.80;63.30
15409;DHT22;7803;48.130;13.788;2023-02-28T04:46:12;21.80;63.30
15409;DHT22;7803;48.130;13.788;2023-02-28T04:49:14;21.80;63.30
15409;DHT22;7803;48.130;13.788;2023-02-28T04:52:16;21.90;63.30
15409;DHT22;7803;48.130;13.788;2023-02-28T04:55:20;21.90;63.20
15409;DHT22;7803;48.130;13.788;2023-02-28T04:58:22;21.90;63.20
15409;DHT22;7803;48.130;13.788;2023-02-28T05:01:26;21.90;63.20
15409;DHT22;7803;48.130;13.788;2023-02-28T05:04:28;21.90;63.20
15409;DHT22;7803;48.130;13.788;2023-02-28T05:07:30;21.90;63.20
15409;DHT22;7803;48.130;13.788;2023-02-28T05:10:34;22.00;63.30
15409;DHT22;7803;48.130;13.788;2023-02-28T05:13:36;22.00;63.20
15409;DHT22;7803;48.130;13.788;2023-02-28T05:16:38;22.00;63.20
15409;DHT22;7803;48.130;13.788;2023-02-28T05:19:40;22.10;63.20
15409;DHT22;7803;48.130;13.788;2023-02-28T05:22:43;22.10;63.10
15409;DHT22;7803;48.130;13.788;2023-02-28T05:25:47;22.10;63.00
15409;DHT22;7803;48.130;13.788;2023-02-28T05:28:49;22.10;63.00
15409;DHT22;7803;48.130;13.788;2023-02-28T05:31:51;22.20;63.00
15409;DHT22;7803;48.130;13.788;2023-02-28T05:34:53;22.20;63.00
15409;DHT22;7803;48.130;13.788;2023-02-28T05:37:55;22.20;63.00
15409;DHT22;7803;48.130;13.788;2023-02-28T05:40:58;22.20;62.90
15409;DHT22;7803;48.130;13.788;2023-02-28T05:44:01;22.30;62.90
15409;DHT22;7803;48.130;13.788;2023-02-28T05:47:03;22.30;62.80
15409;DHT22;7803;48.130;13.788;2023-02-28T05:50:06;22.30;62.80
15409;DHT22;7803;48.130;13.788;2023-02-28T05:53:09;22.30;62.80
15409;DHT22;7803;48.130;13.788;2023-02-28T05:56:13;22.30;62.80
15409;DHT22;7803;48.130;13.788;2023-02-28T05:59:15;22.30;62.70
15409;DHT22;7803;48.130;13.788;2023-02-28T06:02:17;22.40;62.70
15409;DHT22;7803;48.130;13.788;2023-02-28T06:05:19;22.50;63.10
15409;DHT22;7803;48.130;13.788;2023-02-28T06:08:21;22.50;63.20
15409;DHT22;7803;48.130;13.788;2023-02-28T06:11:25;22.50;63.30
15409;DHT22;7803;48.130;13.788;2023-02-28T06:14:27;22.60;63.30
15409;DHT22;7803;48.130;13.788;2023-02-28T06:17:31;22.60;63.10
15409;DHT22;7803;48.130;13.788;2023-02-28T06:20:33;22.60;63.00
15409;DHT22;7803;48.130;13.788;2023-02-28T06:23:36;22.60;63.10
15409;DHT22;7803;48.130;13.788;2023-02-28T06:26:40;22.60;63.20
15409;DHT22;7803;48.130;13.788;2023-02-28T06:29:42;22.60;63.20
15409;DHT22;7803;48.130;13.788;2023-02-28T06:32:44;22.60;63.20
15409;DHT22;7803;48.130;13.788;2023-02-28T06:35:47;22.60;63.10
15409;DHT22;7803;48.130;13.788;2023-02-28T06:38:49;22.70;63.20
15409;DHT22;7803;48.130;13.788;2023-02-28T06:41:57;22.70;63.10
15409;DHT22;7803;48.130;13.788;2023-02-28T06:44:59;22.70;63.10
15409;DHT22;7803;48.130;13.788;2023-02-28T06:48:04;22.70;63.00
15409;DHT22;7803;48.130;13.788;2023-02-28T06:51:07;22.70;63.10
15409;DHT22;7803;48.130;13.788;2023-02-28T06:54:10;22.70;63.00
15409;DHT22;7803;48.130;13.788;2023-02-28T06:57:14;22.70;62.90
15409;DHT22;7803;48.130;13.788;2023-02-28T07:00:16;22.70;62.80
15409;DHT22;7803;48.130;13.788;2023-02-28T07:03:19;22.80;62.80
15409;DHT22;7803;48.130;13.788;2023-02-28T07:06:22;22.80;62.80
15409;DHT22;7803;48.130;13.788;2023-02-28T07:09:24;22.80;63.70
15409;DHT22;7803;48.130;13.788;2023-02-28T07:12:31;22.80;62.70
15409;DHT22;7803;48.130;13.788;2023-02-28T07:15:33;22.80;62.70
15409;DHT22;7803;48.130;13.788;2023-02-28T07:18:36;22.90;62.70
15409;DHT22;7803;48.130;13.788;2023-02-28T07:21:38;22.90;62.70
15409;DHT22;7803;48.130;13.788;2023-02-28T07:24:40;22.90;62.70
15409;DHT22;7803;48.130;13.788;2023-02-28T07:27:43;22.90;62.70
15409;DHT22;7803;48.130;13.788;2023-02-28T07:30:45;22.90;62.70
15409;DHT22;7803;48.130;13.788;2023-02-28T07:33:48;23.00;62.70
15409;DHT22;7803;48.130;13.788;2023-02-28T07:36:53;23.00;62.60
15409;DHT22;7803;48.130;13.788;2023-02-28T07:39:55;23.00;62.50
15409;DHT22;7803;48.130;13.788;2023-02-28T07:42:58;23.00;62.50
15409;DHT22;7803;48.130;13.788;2023-02-28T07:46:05;23.00;62.50
15409;DHT22;7803;48.130;13.788;2023-02-28T07:49:07;23.10;62.50
15409;DHT22;7803;48.130;13.788;2023-02-28T07:52:09;23.10;62.50
15409;DHT22;7803;48.130;13.788;2023-02-28T07:55:11;23.10;62.50
15409;DHT22;7803;48.130;13.788;2023-02-28T07:58:15;23.10;62.50
15409;DHT22;7803;48.130;13.788;2023-02-28T08:01:17;23.10;62.50
15409;DHT22;7803;48.130;13.788;2023-02-28T08:04:20;23.10;62.40
15409;DHT22;7803;48.130;13.788;2023-02-28T08:07:23;23.10;62.40
15409;DHT22;7803;48.130;13.788;2023-02-28T08:10:25;23.10;62.30
15409;DHT22;7803;48.130;13.788;2023-02-28T08:13:29;23.10;62.30
15409;DHT22;7803;48.130;13.788;2023-02-28T08:16:31;23.10;62.30
15409;DHT22;7803;48.130;13.788;2023-02-28T08:19:33;23.20;62.30
15409;DHT22;7803;48.130;13.788;2023-02-28T08:22:35;23.10;62.20
15409;DHT22;7803;48.130;13.788;2023-02-28T08:25:37;23.20;62.30
15409;DHT22;7803;48.130;13.788;2023-02-28T08:28:41;23.20;62.30
15409;DHT22;7803;48.130;13.788;2023-02-28T08:31:43;23.20;62.30
15409;DHT22;7803;48.130;13.788;2023-02-28T08:34:45;23.20;62.30
15409;DHT22;7803;48.130;13.788;2023-02-28T08:37:48;23.20;62.30
15409;DHT22;7803;48.130;13.788;2023-02-28T08:40:56;23.30;62.40
15409;DHT22;7803;48.130;13.788;2023-02-28T08:44:00;23.30;62.40
15409;DHT22;7803;48.130;13.788;2023-02-28T08:47:02;23.30;62.50
15409;DHT22;7803;48.130;13.788;2023-02-28T08:50:05;23.30;62.50
15409;DHT22;7803;48.130;13.788;2023-02-28T08:53:07;23.30;62.40
15409;DHT22;7803;48.130;13.788;2023-02-28T08:56:11;23.30;62.40
15409;DHT22;7803;48.130;13.788;2023-02-28T08:59:15;23.30;62.30
15409;DHT22;7803;48.130;13.788;2023-02-28T09:02:17;23.30;62.40
15409;DHT22;7803;48.130;13.788;2023-02-28T09:05:19;23.40;62.50
15409;DHT22;7803;48.130;13.788;2023-02-28T09:08:21;23.30;62.50
15409;DHT22;7803;48.130;13.788;2023-02-28T09:11:23;23.30;62.40
15409;DHT22;7803;48.130;13.788;2023-02-28T09:14:27;23.40;62.50
15409;DHT22;7803;48.130;13.788;2023-02-28T09:17:29;23.30;62.30
15409;DHT22;7803;48.130;13.788;2023-02-28T09:20:31;23.40;62.30
15409;DHT22;7803;48.130;13.788;2023-02-28T09:23:34;23.40;62.30
15409;DHT22;7803;48.130;13.788;2023-02-28T09:26:38;23.40;62.30
15409;DHT22;7803;48.130;13.788;2023-02-28T09:29:42;23.40;62.30
15409;DHT22;7803;48.130;13.788;2023-02-28T09:32:44;23.40;62.30
15409;DHT22;7803;48.130;13.788;2023-02-28T09:35:58;23.40;62.20
15409;DHT22;7803;48.130;13.788;2023-02-28T09:39:00;23.40;62.20
15409;DHT22;7803;48.130;13.788;2023-02-28T09:42:04;23.40;62.20
15409;DHT22;7803;48.130;13.788;2023-02-28T09:45:19;23.40;62.20
15409;DHT22;7803;48.130;13.788;2023-02-28T09:48:27;23.40;62.30
15409;DHT22;7803;48.130;13.788;2023-02-28T09:51:36;23.40;62.30
15409;DHT22;7803;48.130;13.788;2023-02-28T09:54:41;23.40;62.30
15409;DHT22;7803;48.130;13.788;2023-02-28T09:57:43;23.40;62.30
15409;DHT22;7803;48.130;13.788;2023-02-28T10:00:56;23.40;62.50
15409;DHT22;7803;48.130;13.788;2023-02-28T10:04:04;23.40;62.40
15409;DHT22;7803;48.130;13.788;2023-02-28T10:07:17;23.40;62.50
15409;DHT22;7803;48.130;13.788;2023-02-28T10:10:24;23.30;62.40
15409;DHT22;7803;48.130;13.788;2023-02-28T10:13:35;23.30;62.30
15409;DHT22;7803;48.130;13.788;2023-02-28T10:16:41;23.30;62.40
15409;DHT22;7803;48.130;13.788;2023-02-28T10:19:56;23.30;62.80
15409;DHT22;7803;48.130;13.788;2023-02-28T10:23:05;23.30;62.50
15409;DHT22;7803;48.130;13.788;2023-02-28T10:26:12;23.30;62.50
15409;DHT22;7803;48.130;13.788;2023-02-28T10:29:16;23.30;62.50
15409;DHT22;7803;48.130;13.788;2023-02-28T10:32:21;23.40;62.60
15409;DHT22;7803;48.130;13.788;2023-02-28T10:35:25;23.40;62.50
15409;DHT22;7803;48.130;13.788;2023-02-28T10:38:32;23.40;62.50
15409;DHT22;7803;48.130;13.788;2023-02-28T10:41:37;23.40;62.50
15409;DHT22;7803;48.130;13.788;2023-02-28T10:44:44;23.40;62.40
15409;DHT22;7803;48.130;13.788;2023-02-28T10:47:53;23.40;62.40
15409;DHT22;7803;48.130;13.788;2023-02-28T10:50:57;23.40;62.40
15409;DHT22;7803;48.130;13.788;2023-02-28T10:53:59;23.40;62.30
15409;DHT22;7803;48.130;13.788;2023-02-28T10:57:15;23.50;62.50
15409;DHT22;7803;48.130;13.788;2023-02-28T11:00:20;23.50;62.50
15409;DHT22;7803;48.130;13.788;2023-02-28T11:03:32;23.50;62.40
15409;DHT22;7803;48.130;13.788;2023-02-28T11:06:34;23.50;62.50
15409;DHT22;7803;48.130;13.788;2023-02-28T11:09:39;23.50;62.30
15409;DHT22;7803;48.130;13.788;2023-02-28T11:12:44;23.60;62.50
15409;DHT22;7803;48.130;13.788;2023-02-28T11:15:51;23.60;62.40
15409;DHT22;7803;48.130;13.788;2023-02-28T11:18:56;23.60;62.40
15409;DHT22;7803;48.130;13.788;2023-02-28T11:22:02;23.60;62.40
15409;DHT22;7803;48.130;13.788;2023-02-28T11:25:08;23.60;62.50
15409;DHT22;7803;48.130;13.788;2023-02-28T11:28:25;23.60;62.50
15409;DHT22;7803;48.130;13.788;2023-02-28T11:31:28;23.60;62.40
15409;DHT22;7803;48.130;13.788;2023-02-28T11:34:36;23.60;62.50
15409;DHT22;7803;48.130;13.788;2023-02-28T11:37:39;23.60;62.50
15409;DHT22;7803;48.130;13.788;2023-02-28T11:40:46;23.60;62.50
15409;DHT22;7803;48.130;13.788;2023-02-28T11:43:59;23.60;62.40
15409;DHT22;7803;48.130;13.788;2023-02-28T11:47:09;23.60;62.40
15409;DHT22;7803;48.130;13.788;2023-02-28T11:50:24;23.60;62.40
15409;DHT22;7803;48.130;13.788;2023-02-28T11:53:47;23.60;62.40
15409;DHT22;7803;48.130;13.788;2023-02-28T11:56:55;23.70;62.40
15409;DHT22;7803;48.130;13.788;2023-02-28T12:00:06;23.70;62.40
15409;DHT22;7803;48.130;13.788;2023-02-28T12:03:17;23.70;62.50
15409;DHT22;7803;48.130;13.788;2023-02-28T12:06:25;23.70;62.60
15409;DHT22;7803;48.130;13.788;2023-02-28T12:09:46;23.70;62.60
15409;DHT22;7803;48.130;13.788;2023-02-28T12:13:01;23.70;62.50
15409;DHT22;7803;48.130;13.788;2023-02-28T12:16:20;23.70;62.60
15409;DHT22;7803;48.130;13.788;2023-02-28T12:19:26;23.70;62.50
15409;DHT22;7803;48.130;13.788;2023-02-28T12:22:32;23.70;62.50
15409;DHT22;7803;48.130;13.788;2023-02-28T12:25:47;23.70;62.50
15409;DHT22;7803;48.130;13.788;2023-02-28T12:28:57;23.70;62.50
15409;DHT22;7803;48.130;13.788;2023-02-28T12:32:05;23.80;62.50
15409;DHT22;7803;48.130;13.788;2023-02-28T12:35:13;23.70;62.50
15409;DHT22;7803;48.130;13.788;2023-02-28T12:38:21;23.80;62.50
15409;DHT22;7803;48.130;13.788;2023-02-28T12:41:29;23.80;62.50
15409;DHT22;7803;48.130;13.788;2023-02-28T12:44:37;23.80;62.50
15409;DHT22;7803;48.130;13.788;2023-02-28T12:47:42;23.80;62.50
15409;DHT22;7803;48.130;13.788;2023-02-28T12:50:47;23.70;62.50
15409;DHT22;7803;48.130;13.788;2023-02-28T12:53:57;23.80;62.50
15409;DHT22;7803;48.130;13.788;2023-02-28T12:57:06;23.80;63.30
15409;DHT22;7803;48.130;13.788;2023-02-28T13:00:13;23.80;62.40
15409;DHT22;7803;48.130;13.788;2023-02-28T13:03:42;23.80;62.50
15409;DHT22;7803;48.130;13.788;2023-02-28T13:07:04;23.80;62.50
15409;DHT22;7803;48.130;13.788;2023-02-28T13:10:11;23.80;62.40
15409;DHT22;7803;48.130;13.788;2023-02-28T13:13:20;23.80;62.50
15409;DHT22;7803;48.130;13.788;2023-02-28T13:16:23;23.80;62.50
15409;DHT22;7803;48.130;13.788;2023-02-28T13:19:26;23.80;62.50
15409;DHT22;7803;48.130;13.788;2023-02-28T13:22:47;23.80;62.50
15409;DHT22;7803;48.130;13.788;2023-02-28T13:25:52;23.80;62.50
15409;DHT22;7803;48.130;13.788;2023-02-28T13:29:00;23.80;62.40
15409;DHT22;7803;48.130;13.788;2023-02-28T13:35:44;23.90;62.50
15409;DHT22;7803;48.130;13.788;2023-02-28T13:38:47;23.90;62.50
15409;DHT22;7803;48.130;13.788;2023-02-28T13:41:51;23.80;62.50
15409;DHT22;7803;48.130;13.788;2023-02-28T13:45:21;23.90;62.50
15409;DHT22;7803;48.130;13.788;2023-02-28T13:48:26;23.80;62.40
15409;DHT22;7803;48.130;13.788;2023-02-28T13:51:39;23.90;62.50
15409;DHT22;7803;48.130;13.788;2023-02-28T13:55:09;23.90;62.50
15409;DHT22;7803;48.130;13.788;2023-02-28T14:01:53;23.80;62.50
15409;DHT22;7803;48.130;13.788;2023-02-28T14:05:02;23.90;62.60
15409;DHT22;7803;48.130;13.788;2023-02-28T14:08:12;23.90;62.50
15409;DHT22;7803;48.130;13.788;2023-02-28T14:11:26;23.90;62.50
15409;DHT22;7803;48.130;13.788;2023-02-28T14:14:55;23.80;62.50
15409;DHT22;7803;48.130;13.788;2023-02-28T14:18:00;23.90;62.40
15409;DHT22;7803;48.130;13.788;2023-02-28T14:21:20;23.90;62.50
15409;DHT22;7803;48.130;13.788;2023-02-28T14:24:50;23.90;62.50
15409;DHT22;7803;48.130;13.788;2023-02-28T14:28:05;23.90;62.50
15409;DHT22;7803;48.130;13.788;2023-02-28T14:31:16;23.90;62.50
15409;DHT22;7803;48.130;13.788;2023-02-28T14:34:37;23.90;62.50
15409;DHT22;7803;48.130;13.788;2023-02-28T14:37:42;23.90;63.40
15409;DHT22;7803;48.130;13.788;2023-02-28T14:40:45;23.90;62.50
15409;DHT22;7803;48.130;13.788;2023-02-28T14:43:52;23.90;62.60
15409;DHT22;7803;48.130;13.788;2023-02-28T14:46:57;23.80;62.50
15409;DHT22;7803;48.130;13.788;2023-02-28T14:50:00;23.80;62.50
15409;DHT22;7803;48.130;13.788;2023-02-28T14:53:03;23.80;62.50
15409;DHT22;7803;48.130;13.788;2023-02-28T14:56:06;23.90;62.70
15409;DHT22;7803;48.130;13.788;2023-02-28T14:59:25;23.90;62.70
15409;DHT22;7803;48.130;13.788;2023-02-28T15:02:33;23.90;62.70
15409;DHT22;7803;48.130;13.788;2023-02-28T15:05:36;23.90;62.70
15409;DHT22;7803;48.130;13.788;2023-02-28T15:08:38;23.90;62.70
15409;DHT22;7803;48.130;13.788;2023-02-28T15:11:41;23.80;62.70
15409;DHT22;7803;48.130;13.788;2023-02-28T15:14:44;23.80;62.70
15409;DHT22;7803;48.130;13.788;2023-02-28T15:17:50;23.80;62.70
15409;DHT22;7803;48.130;13.788;2023-02-28T15:20:54;23.80;62.60
15409;DHT22;7803;48.130;13.788;2023-02-28T15:24:00;23.90;62.70
15409;DHT22;7803;48.130;13.788;2023-02-28T15:27:04;23.90;62.60
15409;DHT22;7803;48.130;13.788;2023-02-28T15:30:15;23.90;62.60
15409;DHT22;7803;48.130;13.788;2023-02-28T15:33:22;23.90;62.60
15409;DHT22;7803;48.130;13.788;2023-02-28T15:36:28;23.90;62.60
15409;DHT22;7803;48.130;13.788;2023-02-28T15:39:31;23.90;62.60
15409;DHT22;7803;48.130;13.788;2023-02-28T15:42:58;23.90;62.60
15409;DHT22;7803;48.130;13.788;2023-02-28T15:46:03;23.90;62.60
15409;DHT22;7803;48.130;13.788;2023-02-28T15:49:19;23.90;62.70
15409;DHT22;7803;48.130;13.788;2023-02-28T15:52:26;23.90;62.70
15409;DHT22;7803;48.130;13.788;2023-02-28T15:55:30;23.90;62.60
15409;DHT22;7803;48.130;13.788;2023-02-28T15:58:33;23.90;62.50
15409;DHT22;7803;48.130;13.788;2023-02-28T16:01:38;23.90;62.50
15409;DHT22;7803;48.130;13.788;2023-02-28T16:08:14;23.90;62.50
15409;DHT22;7803;48.130;13.788;2023-02-28T16:11:16;23.90;62.40
15409;DHT22;7803;48.130;13.788;2023-02-28T16:14:21;23.90;62.50
15409;DHT22;7803;48.130;13.788;2023-02-28T16:17:26;23.90;62.50
15409;DHT22;7803;48.130;13.788;2023-02-28T16:20:30;23.90;62.50
15409;DHT22;7803;48.130;13.788;2023-02-28T16:23:34;23.90;62.40
15409;DHT22;7803;48.130;13.788;2023-02-28T16:26:37;23.90;62.40
15409;DHT22;7803;48.130;13.788;2023-02-28T16:29:40;23.90;62.40
15409;DHT22;7803;48.130;13.788;2023-02-28T16:32:42;23.90;62.50
15409;DHT22;7803;48.130;13.788;2023-02-28T16:35:45;23.90;62.50
15409;DHT22;7803;48.130;13.788;2023-02-28T16:38:49;23.90;62.50
15409;DHT22;7803;48.130;13.788;2023-02-28T16:41:52;23.90;62.50
15409;DHT22;7803;48.130;13.788;2023-02-28T16:44:55;23.90;62.50
15409;DHT22;7803;48.130;13.788;2023-02-28T16:47:58;23.90;62.60
15409;DHT22;7803;48.130;13.788;2023-02-28T16:51:01;23.90;62.50
15409;DHT22;7803;48.130;13.788;2023-02-28T16:54:06;23.90;62.60
15409;DHT22;7803;48.130;13.788;2023-02-28T16:57:17;23.90;62.70
15409;DHT22;7803;48.130;13.788;2023-02-28T17:00:21;23.90;62.70
15409;DHT22;7803;48.130;13.788;2023-02-28T17:03:26;23.90;62.70
15409;DHT22;7803;48.130;13.788;2023-02-28T17:06:29;23.90;62.70
15409;DHT22;7803;48.130;13.788;2023-02-28T17:09:33;23.90;62.60
15409;DHT22;7803;48.130;13.788;2023-02-28T17:12:36;23.90;62.60
15409;DHT22;7803;48.130;13.788;2023-02-28T17:15:39;23.90;62.50
15409;DHT22;7803;48.130;13.788;2023-02-28T17:18:42;24.00;62.50
15409;DHT22;7803;48.130;13.788;2023-02-28T17:21:45;24.00;62.60
15409;DHT22;7803;48.130;13.788;2023-02-28T17:24:51;23.90;62.50
15409;DHT22;7803;48.130;13.788;2023-02-28T17:27:56;23.90;62.50
15409;DHT22;7803;48.130;13.788;2023-02-28T17:30:59;24.00;62.60
15409;DHT22;7803;48.130;13.788;2023-02-28T17:34:01;24.00;62.60
15409;DHT22;7803;48.130;13.788;2023-02-28T17:37:04;24.00;62.60
15409;DHT22;7803;48.130;13.788;2023-02-28T17:40:15;24.00;62.60
15409;DHT22;7803;48.130;13.788;2023-02-28T17:43:18;24.00;62.60
15409;DHT22;7803;48.130;13.788;2023-02-28T17:46:22;24.00;62.60
15409;DHT22;7803;48.130;13.788;2023-02-28T17:49:25;24.00;62.60
15409;DHT22;7803;48.130;13.788;2023-02-28T17:52:27;24.00;62.70
15409;DHT22;7803;48.130;13.788;2023-02-28T17:55:31;24.00;62.80
15409;DHT22;7803;48.130;13.788;2023-02-28T17:58:35;24.00;62.80
15409;DHT22;7803;48.130;13.788;2023-02-28T18:01:37;24.00;62.80
15409;DHT22;7803;48.130;13.788;2023-02-28T18:04:40;24.10;63.00
15409;DHT22;7803;48.130;13.788;2023-02-28T18:07:44;24.00;63.10
15409;DHT22;7803;48.130;13.788;2023-02-28T18:10:49;24.10;63.40
15409;DHT22;7803;48.130;13.788;2023-02-28T18:13:53;24.00;63.50
15409;DHT22;7803;48.130;13.788;2023-02-28T18:16:57;24.10;63.80
15409;DHT22;7803;48.130;13.788;2023-02-28T18:19:59;24.00;64.00
15409;DHT22;7803;48.130;13.788;2023-02-28T18:23:02;24.10;64.30
15409;DHT22;7803;48.130;13.788;2023-02-28T18:26:07;24.10;64.50
15409;DHT22;7803;48.130;13.788;2023-02-28T18:29:15;24.10;64.70
15409;DHT22;7803;48.130;13.788;2023-02-28T18:32:19;24.00;64.80
15409;DHT22;7803;48.130;13.788;2023-02-28T18:35:23;24.10;65.00
15409;DHT22;7803;48.130;13.788;2023-02-28T18:38:36;24.00;65.00
15409;DHT22;7803;48.130;13.788;2023-02-28T18:41:41;24.00;65.20
15409;DHT22;7803;48.130;13.788;2023-02-28T18:44:44;24.00;65.40
15409;DHT22;7803;48.130;13.788;2023-02-28T18:47:48;24.00;65.50
15409;DHT22;7803;48.130;13.788;2023-02-28T18:50:53;24.00;65.70
15409;DHT22;7803;48.130;13.788;2023-02-28T18:53:57;23.90;65.70
15409;DHT22;7803;48.130;13.788;2023-02-28T18:57:02;24.00;65.90
15409;DHT22;7803;48.130;13.788;2023-02-28T19:00:06;23.90;66.00
15409;DHT22;7803;48.130;13.788;2023-02-28T19:03:10;23.90;66.10
15409;DHT22;7803;48.130;13.788;2023-02-28T19:06:14;23.90;66.20
15409;DHT22;7803;48.130;13.788;2023-02-28T19:09:19;23.90;66.20
15409;DHT22;7803;48.130;13.788;2023-02-28T19:12:25;23.90;66.30
15409;DHT22;7803;48.130;13.788;2023-02-28T19:15:28;23.90;66.40
15409;DHT22;7803;48.130;13.788;2023-02-28T19:18:30;23.90;66.50
15409;DHT22;7803;48.130;13.788;2023-02-28T19:21:35;24.00;66.60
15409;DHT22;7803;48.130;13.788;2023-02-28T19:24:38;24.00;66.70
15409;DHT22;7803;48.130;13.788;2023-02-28T19:27:43;24.00;66.70
15409;DHT22;7803;48.130;13.788;2023-02-28T19:30:46;24.00;66.90
15409;DHT22;7803;48.130;13.788;2023-02-28T19:33:50;24.00;66.80
15409;DHT22;7803;48.130;13.788;2023-02-28T19:36:53;24.00;67.70
15409;DHT22;7803;48.130;13.788;2023-02-28T19:39:56;24.00;66.90
15409;DHT22;7803;48.130;13.788;2023-02-28T19:43:01;24.10;67.00
15409;DHT22;7803;48.130;13.788;2023-02-28T19:46:04;24.10;67.10
15409;DHT22;7803;48.130;13.788;2023-02-28T19:49:07;24.10;67.10